createdAt,value
2022-12-14T00:01:55.846Z,1.56
2022-12-14T00:04:23.904Z,1.50
2022-12-14T00:06:51.746Z,1.55
2022-12-14T00:09:19.617Z,1.59
2022-12-14T00:11:47.688Z,1.58
2022-12-14T00:14:15.763Z,1.51
2022-12-14T00:16:43.828Z,1.46
2022-12-14T00:19:12.315Z,1.45
2022-12-14T00:21:40.211Z,1.49
2022-12-14T00:24:08.219Z,1.55
2022-12-14T00:26:36.204Z,1.39
2022-12-14T00:29:04.179Z,1.41
2022-12-14T00:31:32.701Z,1.46
2022-12-14T00:34:01.539Z,1.40
2022-12-14T00:36:31.882Z,1.48
2022-12-14T00:39:00.262Z,1.40
2022-12-14T00:41:28.278Z,1.42
2022-12-14T00:43:56.323Z,1.51
2022-12-14T00:46:24.410Z,1.61
2022-12-14T00:48:52.578Z,1.61
2022-12-14T00:51:20.528Z,1.52
2022-12-14T00:53:48.447Z,1.50
2022-12-14T00:56:16.603Z,1.28
2022-12-14T00:58:44.407Z,1.29
2022-12-14T01:01:13.923Z,1.32
2022-12-14T01:03:42.585Z,1.25
2022-12-14T01:06:19.871Z,1.25
2022-12-14T01:08:48.858Z,1.19
2022-12-14T01:11:16.887Z,1.11
2022-12-14T01:13:44.805Z,1.24
2022-12-14T01:16:18.083Z,1.20
2022-12-14T01:18:46.197Z,1.01
2022-12-14T01:21:17.224Z,1.10
2022-12-14T01:23:46.915Z,1.09
2022-12-14T01:26:16.763Z,1.12
2022-12-14T01:28:46.183Z,1.02
2022-12-14T01:31:17.841Z,1.04
2022-12-14T01:33:46.304Z,1.05
2022-12-14T01:36:17.361Z,1.13
2022-12-14T01:38:46.329Z,1.18
2022-12-14T01:41:28.800Z,1.23
2022-12-14T01:44:16.668Z,1.01
2022-12-14T01:47:01.491Z,1.07
2022-12-14T01:49:56.350Z,1.06
2022-12-14T01:52:40.282Z,0.74
2022-12-14T01:55:16.506Z,0.96
2022-12-14T01:57:47.279Z,0.96
2022-12-14T02:00:17.082Z,0.76
2022-12-14T02:02:51.617Z,0.84
2022-12-14T02:05:22.197Z,0.94
2022-12-14T02:07:53.628Z,0.90
2022-12-14T02:10:24.626Z,0.75
2022-12-14T02:13:04.503Z,0.74
2022-12-14T02:25:07.172Z,0.70
2022-12-14T02:28:01.173Z,0.61
2022-12-14T02:30:35.106Z,0.75
2022-12-14T02:33:18.079Z,0.68
2022-12-14T02:35:57.564Z,0.53
2022-12-14T02:38:43.293Z,0.58
2022-12-14T02:41:24.260Z,0.64
2022-12-14T02:44:14.869Z,0.68
2022-12-14T02:46:55.391Z,0.75
2022-12-14T02:49:53.951Z,0.74
2022-12-14T02:52:51.817Z,0.79
2022-12-14T02:55:53.348Z,0.82
2022-12-14T03:00:47.117Z,0.57
2022-12-14T03:03:15.227Z,0.61
2022-12-14T03:05:42.979Z,0.57
2022-12-14T03:08:14.406Z,0.65
2022-12-14T03:10:58.003Z,0.65
2022-12-14T03:13:33.131Z,0.69
2022-12-14T03:16:20.197Z,0.66
2022-12-14T03:19:03.711Z,0.60
2022-12-14T03:21:37.079Z,0.63
2022-12-14T03:24:10.921Z,0.61
2022-12-14T03:26:49.409Z,0.67
2022-12-14T03:29:28.939Z,0.72
2022-12-14T03:32:01.817Z,0.72
2022-12-14T03:34:40.947Z,0.61
2022-12-14T03:37:12.092Z,0.50
2022-12-14T03:39:42.653Z,0.52
2022-12-14T03:42:10.510Z,0.58
2022-12-14T03:45:02.841Z,0.65
2022-12-14T03:47:39.344Z,0.62
2022-12-14T03:50:16.233Z,0.53
2022-12-14T03:52:52.439Z,0.66
2022-12-14T03:55:43.315Z,0.75
2022-12-14T03:58:16.936Z,0.75
2022-12-14T04:00:51.027Z,0.72
2022-12-14T04:03:43.244Z,0.68
2022-12-14T04:06:29.789Z,0.45
2022-12-14T04:09:10.844Z,0.45
2022-12-14T04:12:05.587Z,0.34
2022-12-14T04:15:03.039Z,0.33
2022-12-14T04:17:54.034Z,0.42
2022-12-14T04:20:31.221Z,0.49
2022-12-14T04:23:07.644Z,0.54
2022-12-14T04:26:00.136Z,0.59
2022-12-14T04:29:12.745Z,0.55
2022-12-14T04:31:46.225Z,0.64
2022-12-14T04:34:21.211Z,0.62
2022-12-14T04:37:02.385Z,0.50
2022-12-14T04:39:44.777Z,0.63
2022-12-14T04:42:15.661Z,0.78
2022-12-14T04:44:49.651Z,0.90
2022-12-14T04:47:19.409Z,0.89
2022-12-14T04:49:50.060Z,0.97
2022-12-14T04:52:21.825Z,0.76
2022-12-14T04:55:12.337Z,0.87
2022-12-14T04:57:53.441Z,0.91
2022-12-14T05:00:21.493Z,0.92
2022-12-14T05:03:04.810Z,0.93
2022-12-14T05:06:00.131Z,1.00
2022-12-14T05:08:37.595Z,0.86
2022-12-14T05:14:28.072Z,0.91
2022-12-14T05:16:56.984Z,0.93
2022-12-14T05:19:26.821Z,0.90
2022-12-14T05:21:55.664Z,0.92
2022-12-14T05:24:23.476Z,0.99
2022-12-14T05:26:51.431Z,0.90
2022-12-14T05:29:19.419Z,0.85
2022-12-14T05:31:49.431Z,0.55
2022-12-14T05:34:18.213Z,0.73
2022-12-14T05:36:46.339Z,0.82
2022-12-14T05:39:15.490Z,0.86
2022-12-14T05:41:44.248Z,0.89
2022-12-14T05:44:12.165Z,0.71
2022-12-14T05:46:40.384Z,0.78
2022-12-14T05:49:08.741Z,0.61
2022-12-14T05:51:36.692Z,0.44
2022-12-14T05:54:05.655Z,0.64
2022-12-14T05:56:33.723Z,0.65
2022-12-14T05:59:02.851Z,0.67
2022-12-14T06:01:30.840Z,0.76
2022-12-14T06:03:58.883Z,0.73
2022-12-14T06:06:27.020Z,0.77
2022-12-14T06:08:54.881Z,0.68
2022-12-14T06:11:23.629Z,0.61
2022-12-14T06:13:52.068Z,0.67
2022-12-14T06:16:25.693Z,0.66
2022-12-14T06:18:58.496Z,0.58
2022-12-14T06:21:28.920Z,0.64
2022-12-14T06:23:57.435Z,0.51
2022-12-14T06:26:26.692Z,0.56
2022-12-14T06:28:55.863Z,0.36
2022-12-14T06:31:26.136Z,0.53
2022-12-14T06:33:55.034Z,0.49
2022-12-14T06:36:25.821Z,0.38
2022-12-14T06:38:56.367Z,0.27
2022-12-14T06:41:25.059Z,0.45
2022-12-14T06:43:53.993Z,0.49
2022-12-14T06:46:23.416Z,0.40
2022-12-14T06:48:53.524Z,0.33
2022-12-14T06:51:23.395Z,0.57
2022-12-14T06:53:53.064Z,0.72
2022-12-14T06:56:23.159Z,0.78
2022-12-14T06:58:51.252Z,0.72
2022-12-14T07:01:21.415Z,0.55
2022-12-14T07:03:55.189Z,0.61
2022-12-14T07:06:24.401Z,0.79
2022-12-14T07:08:57.387Z,0.93
2022-12-14T07:11:27.029Z,0.87
2022-12-14T07:13:55.659Z,0.85
2022-12-14T07:16:29.345Z,0.56
2022-12-14T07:18:58.156Z,0.48
2022-12-14T07:21:26.872Z,0.51
2022-12-14T07:23:54.844Z,0.30
2022-12-14T07:26:25.927Z,0.58
2022-12-14T07:28:54.838Z,0.95
2022-12-14T07:31:38.221Z,1.23
2022-12-14T07:34:06.412Z,1.32
2022-12-14T07:36:34.581Z,1.35
2022-12-14T07:39:02.493Z,1.35
2022-12-14T07:41:32.011Z,1.61
2022-12-14T07:44:03.381Z,1.51
2022-12-14T07:46:34.998Z,1.15
2022-12-14T07:49:04.237Z,0.82
2022-12-14T07:51:34.065Z,0.96
2022-12-14T07:54:04.269Z,0.79
2022-12-14T07:56:35.753Z,0.86
2022-12-14T07:59:05.905Z,1.00
2022-12-14T08:01:35.904Z,0.94
2022-12-14T08:04:07.947Z,1.18
2022-12-14T08:06:37.014Z,1.17
2022-12-14T08:09:06.747Z,1.04
2022-12-14T08:11:35.139Z,1.02
2022-12-14T08:28:57.353Z,0.64
2022-12-14T08:31:28.132Z,0.68
2022-12-14T08:33:58.083Z,0.37
2022-12-14T08:36:33.041Z,0.61
2022-12-14T08:39:03.640Z,0.95
2022-12-14T08:41:32.210Z,1.32
2022-12-14T08:44:01.649Z,1.57
2022-12-14T08:46:31.662Z,1.89
2022-12-14T08:49:00.298Z,1.90
2022-12-14T08:51:28.902Z,1.96
2022-12-14T08:53:58.468Z,1.99
2022-12-14T08:56:28.250Z,1.89
2022-12-14T09:01:55.941Z,1.77
2022-12-14T09:04:24.368Z,1.92
2022-12-14T09:06:52.394Z,1.89
2022-12-14T09:09:20.248Z,2.33
2022-12-14T09:11:48.380Z,2.58
2022-12-14T09:14:16.232Z,2.53
2022-12-14T09:16:44.266Z,2.64
2022-12-14T09:19:12.683Z,2.77
2022-12-14T09:21:40.777Z,2.93
2022-12-14T09:24:09.544Z,3.10
2022-12-14T09:26:37.585Z,2.97
2022-12-14T09:29:05.672Z,3.22
2022-12-14T09:31:33.987Z,3.25
2022-12-14T09:34:02.012Z,2.81
2022-12-14T09:36:30.031Z,2.62
2022-12-14T09:38:59.662Z,2.93
2022-12-14T09:41:36.503Z,2.95
2022-12-14T09:44:29.494Z,3.06
2022-12-14T09:47:18.408Z,2.69
2022-12-14T09:49:49.196Z,3.33
2022-12-14T09:52:21.532Z,2.97
2022-12-14T09:54:50.567Z,3.21
2022-12-14T09:57:30.765Z,3.05
2022-12-14T09:59:58.780Z,2.50
2022-12-14T10:02:36.125Z,2.47
2022-12-14T10:05:42.562Z,1.76
2022-12-14T10:08:31.035Z,1.54
2022-12-14T10:11:23.214Z,1.48
2022-12-14T10:14:00.131Z,1.54
2022-12-14T10:16:51.766Z,1.50
2022-12-14T10:19:35.639Z,1.32
2022-12-14T10:22:12.365Z,1.71
2022-12-14T10:25:05.841Z,1.76
2022-12-14T10:27:54.116Z,1.63
2022-12-14T10:30:23.485Z,1.58
2022-12-14T10:33:06.275Z,1.45
2022-12-14T10:36:00.219Z,1.14
2022-12-14T10:38:39.390Z,1.22
2022-12-14T10:41:49.455Z,1.71
2022-12-14T10:44:56.090Z,2.59
2022-12-14T10:47:42.168Z,2.99
2022-12-14T10:50:19.008Z,3.16
2022-12-14T10:52:53.842Z,3.25
2022-12-14T10:55:30.067Z,3.43
2022-12-14T10:57:58.070Z,3.34
2022-12-14T11:00:26.155Z,3.13
2022-12-14T11:02:57.582Z,3.14
2022-12-14T11:06:11.146Z,2.84
2022-12-14T11:08:48.707Z,2.37
2022-12-14T11:11:21.291Z,1.71
2022-12-14T11:13:56.720Z,1.83
2022-12-14T11:16:39.024Z,1.71
2022-12-14T11:19:24.967Z,1.68
2022-12-14T11:22:20.142Z,1.74
2022-12-14T11:24:50.163Z,2.00
2022-12-14T11:27:21.405Z,2.68
2022-12-14T11:29:51.346Z,2.86
2022-12-14T11:32:25.067Z,2.71
2022-12-14T11:35:16.723Z,2.18
2022-12-14T11:37:45.873Z,1.80
2022-12-14T11:40:39.874Z,1.50
2022-12-14T11:43:17.864Z,2.08
2022-12-14T11:45:51.903Z,1.82
2022-12-14T11:48:22.550Z,1.83
2022-12-14T11:50:56.704Z,1.77
2022-12-14T11:53:24.619Z,1.70
2022-12-14T11:55:58.659Z,1.67
2022-12-14T11:58:32.671Z,1.68
2022-12-14T12:01:12.132Z,1.79
2022-12-14T12:03:48.083Z,1.76
2022-12-14T12:06:24.913Z,2.08
2022-12-14T12:09:00.992Z,2.06
2022-12-14T12:11:31.709Z,1.84
2022-12-14T12:14:28.016Z,1.70
2022-12-14T12:16:56.394Z,1.68
2022-12-14T12:19:35.127Z,1.58
2022-12-14T12:22:05.709Z,1.69
2022-12-14T12:25:08.291Z,1.68
2022-12-14T12:27:34.036Z,1.96
2022-12-14T12:30:19.951Z,1.94
2022-12-14T12:32:52.997Z,1.92
2022-12-14T12:35:30.557Z,1.80
2022-12-14T12:38:33.891Z,1.49
2022-12-14T12:41:10.803Z,1.61
2022-12-14T12:43:58.683Z,1.86
2022-12-14T12:47:14.899Z,1.95
2022-12-14T12:49:34.281Z,2.16
2022-12-14T12:52:06.801Z,2.13
2022-12-14T12:54:40.489Z,2.20
2022-12-14T12:57:12.655Z,2.07
2022-12-14T12:59:47.260Z,2.22
2022-12-14T13:02:26.038Z,2.27
2022-12-14T13:04:55.374Z,2.16
2022-12-14T13:07:36.101Z,1.91
2022-12-14T13:10:16.088Z,1.95
2022-12-14T13:12:51.347Z,1.85
2022-12-14T13:15:49.638Z,1.69
2022-12-14T13:18:59.504Z,1.53
2022-12-14T13:21:35.245Z,1.71
2022-12-14T13:24:05.084Z,1.69
2022-12-14T13:26:59.273Z,1.75
2022-12-14T13:30:01.182Z,1.77
2022-12-14T13:32:54.516Z,1.71
2022-12-14T13:35:40.843Z,1.80
2022-12-14T13:38:32.845Z,1.81
2022-12-14T13:41:15.263Z,1.53
2022-12-14T13:43:52.374Z,1.56
2022-12-14T13:46:27.000Z,1.59
2022-12-14T13:49:01.024Z,1.73
2022-12-14T13:51:46.833Z,1.83
2022-12-14T13:54:21.027Z,1.79
2022-12-14T13:56:49.393Z,1.82
2022-12-14T13:59:29.716Z,1.83
2022-12-14T14:02:01.398Z,1.82
2022-12-14T14:04:31.405Z,1.94
2022-12-14T14:07:23.956Z,1.90
2022-12-14T14:10:04.997Z,1.83
2022-12-14T14:12:41.870Z,1.77
2022-12-14T14:15:24.285Z,1.70
2022-12-14T14:17:56.584Z,1.51
2022-12-14T14:29:25.860Z,1.34
2022-12-14T14:31:55.451Z,1.28
2022-12-14T14:34:38.740Z,1.46
2022-12-14T14:37:21.780Z,1.40
2022-12-14T14:40:21.973Z,1.29
2022-12-14T14:43:16.877Z,1.23
2022-12-14T14:45:55.403Z,1.35
2022-12-14T14:48:43.279Z,1.39
2022-12-14T14:51:11.235Z,1.41
2022-12-14T14:53:40.494Z,1.18
2022-12-14T14:56:26.826Z,1.30
2022-12-14T14:59:17.287Z,1.13
2022-12-14T15:01:58.528Z,1.29
2022-12-14T15:04:34.447Z,1.30
2022-12-14T15:07:06.116Z,1.17
2022-12-14T15:09:41.757Z,1.23
2022-12-14T15:12:31.621Z,1.35
2022-12-14T15:15:05.117Z,1.31
2022-12-14T15:17:33.423Z,1.30
2022-12-14T15:20:03.041Z,1.15
2022-12-14T15:22:41.947Z,0.93
2022-12-14T15:25:23.404Z,0.90
2022-12-14T15:27:52.930Z,0.70
2022-12-14T15:30:26.883Z,0.95
2022-12-14T15:33:10.578Z,0.99
2022-12-14T15:35:42.874Z,1.10
2022-12-14T15:38:26.553Z,1.14
2022-12-14T15:40:57.553Z,1.21
2022-12-14T15:43:27.663Z,1.28
2022-12-14T15:46:04.438Z,1.27
2022-12-14T15:48:36.531Z,1.10
2022-12-14T15:51:14.438Z,1.05
2022-12-14T15:53:51.367Z,1.06
2022-12-14T15:57:00.738Z,1.28
2022-12-14T16:00:00.039Z,1.42
2022-12-14T16:02:33.119Z,1.42
2022-12-14T16:05:03.575Z,1.34
2022-12-14T16:07:39.682Z,1.28
2022-12-14T16:10:26.354Z,1.35
2022-12-14T16:13:00.731Z,1.40
2022-12-14T16:15:30.311Z,1.28
2022-12-14T16:18:02.495Z,1.23
2022-12-14T16:20:36.235Z,1.30
2022-12-14T16:23:28.112Z,1.28
2022-12-14T16:26:21.823Z,1.36
2022-12-14T16:28:50.361Z,1.48
2022-12-14T16:31:24.597Z,1.38
2022-12-14T16:34:14.724Z,1.44
2022-12-14T16:36:56.273Z,1.26
2022-12-14T16:39:40.152Z,1.29
2022-12-14T16:42:20.277Z,1.17
2022-12-14T16:44:49.388Z,1.33
2022-12-14T16:47:48.960Z,1.44
2022-12-14T16:50:55.050Z,1.52
2022-12-14T16:53:26.603Z,1.46
2022-12-14T16:56:07.097Z,1.51
2022-12-14T16:58:36.721Z,1.59
2022-12-14T17:01:08.338Z,1.58
2022-12-14T17:03:38.404Z,1.56
2022-12-14T17:06:07.912Z,1.58
2022-12-14T17:08:36.516Z,1.53
2022-12-14T17:11:06.240Z,1.52
2022-12-14T17:13:34.869Z,1.50
2022-12-14T17:16:06.663Z,1.66
2022-12-14T17:18:39.446Z,1.46
2022-12-14T17:21:15.833Z,1.59
2022-12-14T17:23:46.279Z,1.45
2022-12-14T17:26:28.335Z,1.33
2022-12-14T17:28:57.126Z,0.90
2022-12-14T17:31:27.628Z,0.98
2022-12-14T17:33:57.888Z,0.98
2022-12-14T17:36:26.082Z,0.96
2022-12-14T17:38:54.409Z,0.79
2022-12-14T17:41:27.498Z,0.80
2022-12-14T17:43:57.459Z,0.98
2022-12-14T17:46:26.427Z,1.08
2022-12-14T17:48:55.082Z,0.98
2022-12-14T17:51:29.152Z,0.89
2022-12-14T17:53:59.930Z,1.17
2022-12-14T17:56:28.650Z,1.11
2022-12-14T17:58:57.071Z,1.17
2022-12-14T18:01:26.415Z,1.20
2022-12-14T18:03:55.025Z,1.27
2022-12-14T18:06:23.149Z,1.07
2022-12-14T18:08:51.817Z,1.06
2022-12-14T18:11:23.373Z,1.24
2022-12-14T18:13:52.323Z,1.20
2022-12-14T18:16:24.055Z,1.00
2022-12-14T18:18:54.632Z,0.94
2022-12-14T18:21:25.978Z,0.96
2022-12-14T18:23:55.242Z,0.93
2022-12-14T18:26:24.127Z,0.97
2022-12-14T18:28:54.804Z,1.04
2022-12-14T18:31:27.480Z,0.96
2022-12-14T18:33:56.192Z,0.94
2022-12-14T18:36:24.797Z,1.08
2022-12-14T18:38:53.519Z,1.15
2022-12-14T18:41:24.793Z,1.05
2022-12-14T18:43:54.656Z,1.13
2022-12-14T18:46:23.869Z,1.22
2022-12-14T18:48:51.904Z,1.08
2022-12-14T18:51:27.216Z,1.16
2022-12-14T18:53:58.476Z,1.00
2022-12-14T18:56:28.395Z,1.11
2022-12-14T18:58:56.794Z,1.19
2022-12-14T19:01:25.955Z,1.29
2022-12-14T19:03:54.735Z,1.28
2022-12-14T19:06:44.064Z,1.23
2022-12-14T19:09:15.243Z,1.26
2022-12-14T19:11:44.948Z,1.30
2022-12-14T19:14:13.585Z,1.17
2022-12-14T19:16:42.163Z,1.22
2022-12-14T19:19:10.877Z,1.32
2022-12-14T19:21:39.210Z,1.32
2022-12-14T19:24:08.931Z,1.36
2022-12-14T19:26:39.525Z,1.36
2022-12-14T19:29:07.831Z,1.48
2022-12-14T19:31:36.181Z,1.40
2022-12-14T19:34:04.799Z,1.57
2022-12-14T19:36:33.216Z,1.63
2022-12-14T19:39:01.531Z,1.42
2022-12-14T19:41:29.896Z,1.45
2022-12-14T19:43:58.769Z,1.45
2022-12-14T19:46:27.244Z,1.42
2022-12-14T19:48:56.034Z,1.40
2022-12-14T19:51:24.649Z,1.37
2022-12-14T19:53:55.152Z,1.16
2022-12-14T19:56:23.728Z,1.38
2022-12-14T19:58:52.418Z,1.41
2022-12-14T20:01:20.797Z,1.42
2022-12-14T20:03:49.694Z,1.42
2022-12-14T20:06:18.098Z,1.25
2022-12-14T20:08:49.511Z,1.40
2022-12-14T20:11:19.867Z,1.40
2022-12-14T20:13:51.836Z,1.48
2022-12-14T20:16:24.811Z,1.59
2022-12-14T20:18:53.831Z,1.56
2022-12-14T20:21:23.273Z,1.49
2022-12-14T20:24:01.428Z,1.40
2022-12-14T20:37:26.134Z,1.34
2022-12-14T20:39:54.562Z,1.18
2022-12-14T20:42:22.789Z,1.31
2022-12-14T20:44:51.109Z,1.26
2022-12-14T20:47:19.237Z,1.38
2022-12-14T20:49:47.272Z,1.49
2022-12-14T20:52:15.403Z,1.49
2022-12-14T20:54:43.593Z,1.56
2022-12-14T20:57:11.496Z,1.60
2022-12-14T20:59:39.512Z,1.33
2022-12-14T21:02:15.436Z,1.39
2022-12-14T21:04:43.645Z,1.46
2022-12-14T21:07:11.610Z,1.33
2022-12-14T21:09:40.108Z,1.43
2022-12-14T21:12:21.773Z,1.49
2022-12-14T21:14:54.176Z,1.45
2022-12-14T21:17:24.955Z,1.37
2022-12-14T21:19:53.776Z,1.40
2022-12-14T21:22:24.327Z,1.40
2022-12-14T21:25:02.984Z,1.47
2022-12-14T21:27:33.928Z,1.30
2022-12-14T21:30:01.836Z,1.38
2022-12-14T21:32:30.802Z,1.37
2022-12-14T21:34:58.602Z,1.34
2022-12-14T21:37:26.557Z,1.32
2022-12-14T21:39:55.709Z,1.40
2022-12-14T21:42:24.307Z,1.56
2022-12-14T21:44:53.365Z,1.54
2022-12-14T21:47:24.487Z,1.49
2022-12-14T21:49:52.614Z,1.56
2022-12-14T21:52:23.994Z,1.56
2022-12-14T21:54:51.976Z,1.60
2022-12-14T21:57:50.590Z,1.56
2022-12-14T22:00:19.612Z,1.66
2022-12-14T22:02:47.746Z,1.40
2022-12-14T22:05:18.996Z,1.40
2022-12-14T22:07:47.277Z,1.57
2022-12-14T22:10:18.701Z,1.59
2022-12-14T22:12:49.485Z,1.61
2022-12-14T22:15:17.512Z,1.51
2022-12-14T22:17:45.388Z,1.38
2022-12-14T22:20:14.834Z,1.30
2022-12-14T22:22:42.771Z,1.56
2022-12-14T22:25:10.678Z,1.58
2022-12-14T22:27:38.753Z,1.71
2022-12-14T22:30:08.781Z,1.79
2022-12-14T22:32:36.762Z,1.46
2022-12-14T22:35:04.989Z,1.57
2022-12-14T22:37:32.898Z,1.64
2022-12-14T22:40:19.491Z,1.58
2022-12-14T22:42:47.477Z,1.69
2022-12-14T22:45:15.454Z,1.37
2022-12-14T22:47:43.516Z,1.35
2022-12-14T22:50:12.078Z,1.35
2022-12-14T22:52:40.584Z,1.48
2022-12-14T22:55:08.740Z,1.53
2022-12-14T22:57:41.870Z,1.23
2022-12-14T23:00:15.987Z,1.18
2022-12-14T23:02:48.297Z,1.24
2022-12-14T23:05:17.927Z,1.36
2022-12-14T23:07:45.998Z,1.25
2022-12-14T23:10:32.577Z,1.25
2022-12-14T23:13:19.004Z,1.27
2022-12-14T23:16:05.304Z,1.41
2022-12-14T23:18:51.936Z,1.46
2022-12-14T23:21:39.412Z,1.42
2022-12-14T23:24:25.996Z,1.45
2022-12-14T23:27:12.888Z,1.45
2022-12-14T23:29:59.681Z,1.50
2022-12-14T23:32:45.974Z,1.54
2022-12-14T23:35:32.811Z,1.42
2022-12-14T23:38:23.604Z,1.31
2022-12-14T23:41:10.882Z,1.39
2022-12-14T23:43:57.414Z,1.43
2022-12-14T23:46:43.930Z,1.41
2022-12-14T23:49:30.539Z,1.42
2022-12-14T23:52:17.188Z,1.41
2022-12-14T23:55:03.543Z,1.37
2022-12-14T23:57:49.752Z,1.36
